UAE44 EDDF-OMDB
Flight info
| Callsign | UAE44 |
|---|---|
| Flight time | N/A |
| Altitude | 35000 |
| Route | CINDY8S/18 CINDY Z74 LAMPU DCT NOMBO Y161 MAH DCT LATLO DCT OBEDI DCT BABOL DCT NISVA DCT USALI DCT OTKOK DCT RODIP DCT BELGI DCT KETEK UT38 VESAR L620 BALMA UR655 LEBOR R655 KTN R785 RASLI P559 TRF R23 NEVOL N318 TAMRO T503 LOTER/N0483F370 T503 KSA M321 RESAL T533 RAPMA DCT KUVSO DCT KATIT DCT PEKEM M628 RIGIL G783 ELUDA/N0475F350 G783 ASPED Q308 KIPOK Q568 IMPED |
| Aircraft | B77W/H-SDE1E2E3FGHIJ2J3J4J5M1RWXY/LB1D1 |
Departure
| Time | 2026-05-06 10:22 |
|---|---|
| Airport | Frankfurt Main Airport (EDDF) |
Arrival
| Time | N/A |
|---|---|
| Airport | Dubai International Airport (OMDB) |
| Time | Latitude | Longitude | Altitude | Speed | Heading |
|---|---|---|---|---|---|
| 2026-05-06 09:35 | 50.03061 | 8.57331 | 361 ft | 0 kts | 25° |
| 2026-05-06 10:08 | 50.03051 | 8.57324 | 364 ft | 4 kts | 25° |
| 2026-05-06 10:08 | 50.03027 | 8.57306 | 365 ft | 4 kts | 24° |
| 2026-05-06 10:08 | 50.03007 | 8.57292 | 366 ft | 4 kts | 19° |
| 2026-05-06 10:09 | 50.02982 | 8.57289 | 358 ft | 4 kts | 337° |
| 2026-05-06 10:09 | 50.02962 | 8.57312 | 359 ft | 4 kts | 299° |
| 2026-05-06 10:09 | 50.02965 | 8.57301 | 365 ft | 4 kts | 295° |
| 2026-05-06 10:09 | 50.02976 | 8.57263 | 358 ft | 4 kts | 295° |
| 2026-05-06 10:10 | 50.02987 | 8.57225 | 358 ft | 4 kts | 295° |
| 2026-05-06 10:10 | 50.02999 | 8.57187 | 362 ft | 4 kts | 295° |
| 2026-05-06 10:10 | 50.03001 | 8.57179 | 359 ft | 0 kts | 295° |
| 2026-05-06 10:13 | 50.03017 | 8.57127 | 363 ft | 11 kts | 295° |
| 2026-05-06 10:13 | 50.03049 | 8.57019 | 364 ft | 11 kts | 295° |
| 2026-05-06 10:14 | 50.03099 | 8.56935 | 364 ft | 11 kts | 336° |
| 2026-05-06 10:14 | 50.03170 | 8.56891 | 365 ft | 11 kts | 339° |
| 2026-05-06 10:14 | 50.03241 | 8.56848 | 366 ft | 11 kts | 334° |
| 2026-05-06 10:14 | 50.03262 | 8.56742 | 359 ft | 12 kts | 254° |
| 2026-05-06 10:15 | 50.03224 | 8.56576 | 362 ft | 20 kts | 250° |
| 2026-05-06 10:15 | 50.03176 | 8.56368 | 361 ft | 20 kts | 250° |
| 2026-05-06 10:15 | 50.03127 | 8.56161 | 353 ft | 20 kts | 250° |
| 2026-05-06 10:15 | 50.03078 | 8.55953 | 353 ft | 20 kts | 250° |
| 2026-05-06 10:16 | 50.03027 | 8.55747 | 359 ft | 20 kts | 249° |
| 2026-05-06 10:16 | 50.02976 | 8.55540 | 351 ft | 20 kts | 249° |
| 2026-05-06 10:16 | 50.02925 | 8.55334 | 359 ft | 20 kts | 249° |
| 2026-05-06 10:16 | 50.02877 | 8.55126 | 352 ft | 20 kts | 250° |
| 2026-05-06 10:17 | 50.02828 | 8.54918 | 357 ft | 20 kts | 250° |
| 2026-05-06 10:17 | 50.02779 | 8.54711 | 356 ft | 20 kts | 250° |
| 2026-05-06 10:17 | 50.02729 | 8.54504 | 349 ft | 20 kts | 249° |
| 2026-05-06 10:17 | 50.02679 | 8.54297 | 352 ft | 20 kts | 249° |
| 2026-05-06 10:18 | 50.02640 | 8.54085 | 351 ft | 20 kts | 250° |
| 2026-05-06 10:18 | 50.02591 | 8.53877 | 337 ft | 20 kts | 250° |
| 2026-05-06 10:18 | 50.02541 | 8.53670 | 335 ft | 20 kts | 249° |
| 2026-05-06 10:18 | 50.02491 | 8.53463 | 346 ft | 20 kts | 249° |
| 2026-05-06 10:19 | 50.02442 | 8.53259 | 336 ft | 20 kts | 249° |
| 2026-05-06 10:19 | 50.02391 | 8.53052 | 339 ft | 20 kts | 249° |
| 2026-05-06 10:19 | 50.02342 | 8.52845 | 340 ft | 20 kts | 250° |
| 2026-05-06 10:19 | 50.02305 | 8.52679 | 337 ft | 14 kts | 255° |
| 2026-05-06 10:20 | 50.02270 | 8.52609 | 339 ft | 8 kts | 199° |
| 2026-05-06 10:20 | 50.02259 | 8.52608 | 336 ft | 0 kts | 181° |
| 2026-05-06 10:21 | 50.02248 | 8.52608 | 335 ft | 10 kts | 181° |
| 2026-05-06 10:21 | 50.01916 | 8.52609 | 338 ft | 89 kts | 179° |
| 2026-05-06 10:21 | 50.01047 | 8.52620 | 337 ft | 162 kts | 179° |
| 2026-05-06 10:22 | 49.99756 | 8.52609 | 669 ft | 189 kts | 180° |
| 2026-05-06 10:22 | 49.98441 | 8.52688 | 1443 ft | 190 kts | 179° |
| 2026-05-06 10:22 | 49.97130 | 8.52926 | 2127 ft | 194 kts | 163° |
| 2026-05-06 10:22 | 49.95993 | 8.54184 | 2351 ft | 219 kts | 126° |
| 2026-05-06 10:23 | 49.95231 | 8.56346 | 2742 ft | 231 kts | 121° |
| 2026-05-06 10:23 | 49.94468 | 8.58536 | 3303 ft | 236 kts | 120° |
| 2026-05-06 10:23 | 49.93979 | 8.60997 | 3748 ft | 249 kts | 96° |
| 2026-05-06 10:23 | 49.93915 | 8.63802 | 4137 ft | 263 kts | 94° |
| 2026-05-06 10:24 | 49.93819 | 8.66701 | 4696 ft | 272 kts | 95° |
| 2026-05-06 10:24 | 49.93355 | 8.69550 | 5184 ft | 277 kts | 125° |
| 2026-05-06 10:24 | 49.92002 | 8.71605 | 5845 ft | 272 kts | 149° |
| 2026-05-06 10:24 | 49.90414 | 8.73262 | 6461 ft | 278 kts | 147° |
| 2026-05-06 10:25 | 49.88834 | 8.75014 | 7198 ft | 279 kts | 142° |
| 2026-05-06 10:25 | 49.87635 | 8.77414 | 7740 ft | 287 kts | 119° |
| 2026-05-06 10:25 | 49.86708 | 8.80197 | 8336 ft | 293 kts | 121° |
| 2026-05-06 10:25 | 49.85730 | 8.82977 | 9036 ft | 295 kts | 122° |
| 2026-05-06 10:26 | 49.84736 | 8.85722 | 9638 ft | 296 kts | 122° |
| 2026-05-06 10:26 | 49.83705 | 8.88565 | 9828 ft | 302 kts | 122° |
| 2026-05-06 10:26 | 49.82644 | 8.91480 | 10072 ft | 322 kts | 122° |
| 2026-05-06 10:26 | 49.81501 | 8.94617 | 10245 ft | 345 kts | 122° |
| 2026-05-06 10:27 | 49.80283 | 8.97964 | 10449 ft | 369 kts | 122° |
| 2026-05-06 10:27 | 49.79002 | 9.01478 | 10989 ft | 380 kts | 122° |
| 2026-05-06 10:27 | 49.77689 | 9.05083 | 11709 ft | 387 kts | 122° |
| 2026-05-06 10:27 | 49.76393 | 9.08683 | 12634 ft | 387 kts | 120° |
| 2026-05-06 10:28 | 49.75421 | 9.12656 | 13349 ft | 396 kts | 107° |
| 2026-05-06 10:28 | 49.74781 | 9.16775 | 14107 ft | 400 kts | 107° |
| 2026-05-06 10:28 | 49.73805 | 9.20823 | 14824 ft | 397 kts | 124° |
| 2026-05-06 10:28 | 49.72078 | 9.24054 | 15576 ft | 395 kts | 138° |
| 2026-05-06 10:29 | 49.70120 | 9.27050 | 16402 ft | 398 kts | 137° |
| 2026-05-06 10:29 | 49.68194 | 9.30207 | 17168 ft | 401 kts | 135° |
| 2026-05-06 10:29 | 49.66352 | 9.33397 | 17910 ft | 404 kts | 134° |
| 2026-05-06 10:29 | 49.64490 | 9.36673 | 18656 ft | 407 kts | 134° |
| 2026-05-06 10:30 | 49.62530 | 9.39854 | 19263 ft | 411 kts | 140° |
| 2026-05-06 10:30 | 49.60315 | 9.42669 | 19850 ft | 415 kts | 146° |
| 2026-05-06 10:30 | 49.57895 | 9.45102 | 20442 ft | 417 kts | 152° |
| 2026-05-06 10:30 | 49.55372 | 9.47364 | 21047 ft | 421 kts | 152° |
| 2026-05-06 10:31 | 49.52833 | 9.49649 | 21637 ft | 425 kts | 152° |
| 2026-05-06 10:31 | 49.50268 | 9.51974 | 22192 ft | 430 kts | 152° |
| 2026-05-06 10:31 | 49.47682 | 9.54329 | 22747 ft | 433 kts | 152° |
| 2026-05-06 10:31 | 49.45077 | 9.56706 | 23283 ft | 437 kts | 152° |
| 2026-05-06 10:32 | 49.42452 | 9.59103 | 23818 ft | 441 kts | 152° |
| 2026-05-06 10:32 | 49.39807 | 9.61516 | 24314 ft | 445 kts | 152° |
| 2026-05-06 10:32 | 49.37134 | 9.63951 | 24869 ft | 447 kts | 152° |
| 2026-05-06 10:32 | 49.34522 | 9.66596 | 25383 ft | 452 kts | 147° |
| 2026-05-06 10:33 | 49.32071 | 9.69633 | 25892 ft | 457 kts | 142° |
| 2026-05-06 10:33 | 49.29792 | 9.73074 | 26361 ft | 461 kts | 139° |
| 2026-05-06 10:33 | 49.27536 | 9.76588 | 26802 ft | 464 kts | 139° |
| 2026-05-06 10:33 | 49.25260 | 9.80112 | 27250 ft | 466 kts | 139° |
| 2026-05-06 10:34 | 49.22965 | 9.83644 | 27679 ft | 469 kts | 140° |
| 2026-05-06 10:34 | 49.20662 | 9.87173 | 28083 ft | 471 kts | 140° |
| 2026-05-06 10:34 | 49.18333 | 9.90723 | 28467 ft | 473 kts | 140° |
| 2026-05-06 10:34 | 49.15994 | 9.94273 | 28847 ft | 475 kts | 140° |
| 2026-05-06 10:35 | 49.13650 | 9.97826 | 29221 ft | 476 kts | 141° |
| 2026-05-06 10:35 | 49.11303 | 10.01382 | 29669 ft | 474 kts | 141° |
| 2026-05-06 10:35 | 49.08964 | 10.04928 | 30126 ft | 473 kts | 141° |
| 2026-05-06 10:35 | 49.06628 | 10.08454 | 30513 ft | 473 kts | 141° |
| 2026-05-06 10:36 | 49.04265 | 10.11924 | 30917 ft | 471 kts | 143° |
| 2026-05-06 10:36 | 49.01863 | 10.15292 | 31327 ft | 469 kts | 144° |
| 2026-05-06 10:36 | 48.99452 | 10.18633 | 31710 ft | 468 kts | 144° |
| 2026-05-06 10:36 | 48.97053 | 10.21984 | 32060 ft | 468 kts | 143° |
| 2026-05-06 10:37 | 48.94666 | 10.25340 | 32438 ft | 467 kts | 143° |
| 2026-05-06 10:37 | 48.92289 | 10.28697 | 32820 ft | 466 kts | 143° |
| 2026-05-06 10:37 | 48.89913 | 10.32045 | 33114 ft | 466 kts | 143° |
| 2026-05-06 10:37 | 48.87533 | 10.35391 | 33416 ft | 466 kts | 143° |
| 2026-05-06 10:38 | 48.85157 | 10.38732 | 33727 ft | 465 kts | 143° |
| 2026-05-06 10:38 | 48.82791 | 10.42079 | 34054 ft | 465 kts | 142° |
| 2026-05-06 10:38 | 48.80544 | 10.45626 | 34349 ft | 467 kts | 139° |
| 2026-05-06 10:38 | 48.78339 | 10.49236 | 34592 ft | 468 kts | 139° |
| 2026-05-06 10:39 | 48.76117 | 10.52858 | 34717 ft | 470 kts | 139° |
| 2026-05-06 10:39 | 48.73875 | 10.56473 | 34775 ft | 473 kts | 139° |
| 2026-05-06 10:39 | 48.69323 | 10.63656 | 34799 ft | 470 kts | 140° |
| 2026-05-06 10:40 | 48.64794 | 10.70722 | 34803 ft | 467 kts | 140° |
| 2026-05-06 10:40 | 48.60334 | 10.77846 | 34813 ft | 466 kts | 140° |
| 2026-05-06 10:41 | 48.55887 | 10.84957 | 34813 ft | 467 kts | 140° |
| 2026-05-06 10:41 | 48.51434 | 10.92089 | 34804 ft | 467 kts | 140° |
| 2026-05-06 10:42 | 48.46952 | 10.99204 | 34805 ft | 469 kts | 140° |
| 2026-05-06 10:42 | 48.42406 | 11.06263 | 34803 ft | 470 kts | 140° |
| 2026-05-06 10:43 | 48.38618 | 11.12138 | 34816 ft | 471 kts | 140° |
| 2026-05-06 10:44 | 48.31762 | 11.22758 | 34807 ft | 473 kts | 140° |
| 2026-05-06 10:44 | 48.27248 | 11.29969 | 34796 ft | 477 kts | 135° |
| 2026-05-06 10:45 | 48.23509 | 11.38257 | 34813 ft | 484 kts | 125° |
| 2026-05-06 10:45 | 48.20236 | 11.47088 | 34805 ft | 485 kts | 125° |
| 2026-05-06 10:46 | 48.16937 | 11.55903 | 34809 ft | 485 kts | 126° |
| 2026-05-06 10:46 | 48.13606 | 11.64688 | 34811 ft | 485 kts | 126° |
| 2026-05-06 10:47 | 48.10253 | 11.73455 | 34809 ft | 486 kts | 126° |
| 2026-05-06 10:47 | 48.06888 | 11.82220 | 34802 ft | 486 kts | 126° |
| 2026-05-06 10:48 | 48.03519 | 11.90994 | 34801 ft | 487 kts | 126° |
| 2026-05-06 10:48 | 48.00136 | 11.99769 | 34814 ft | 488 kts | 126° |
| 2026-05-06 10:49 | 47.96744 | 12.08530 | 34807 ft | 488 kts | 126° |
| 2026-05-06 10:49 | 47.93347 | 12.17283 | 34810 ft | 487 kts | 126° |
| 2026-05-06 10:50 | 47.89945 | 12.26018 | 34799 ft | 487 kts | 126° |
| 2026-05-06 10:50 | 47.86541 | 12.34736 | 34800 ft | 487 kts | 126° |
| 2026-05-06 10:51 | 47.83127 | 12.43442 | 34806 ft | 487 kts | 126° |
| 2026-05-06 10:51 | 47.79712 | 12.52129 | 34823 ft | 486 kts | 126° |
| 2026-05-06 10:52 | 47.76287 | 12.60808 | 34806 ft | 487 kts | 126° |
| 2026-05-06 10:52 | 47.72857 | 12.69477 | 34834 ft | 487 kts | 126° |
| 2026-05-06 10:53 | 47.69360 | 12.78118 | 34812 ft | 486 kts | 130° |
| 2026-05-06 10:53 | 47.65119 | 12.85754 | 34812 ft | 475 kts | 142° |
| 2026-05-06 10:54 | 47.60423 | 12.92572 | 34815 ft | 476 kts | 142° |
| 2026-05-06 10:54 | 47.55692 | 12.99471 | 34803 ft | 477 kts | 141° |
| 2026-05-06 10:55 | 47.50982 | 13.06392 | 34813 ft | 478 kts | 141° |
| 2026-05-06 10:55 | 47.46260 | 13.13332 | 34792 ft | 479 kts | 141° |
| 2026-05-06 10:56 | 47.41552 | 13.20234 | 34854 ft | 476 kts | 141° |
| 2026-05-06 10:56 | 47.36844 | 13.27107 | 34845 ft | 477 kts | 141° |
| 2026-05-06 10:57 | 47.32281 | 13.34257 | 34858 ft | 483 kts | 134° |
| 2026-05-06 10:57 | 47.28507 | 13.42543 | 34883 ft | 488 kts | 128° |
| 2026-05-06 10:58 | 47.24856 | 13.51005 | 34870 ft | 490 kts | 128° |
| 2026-05-06 10:58 | 47.21175 | 13.59441 | 34867 ft | 490 kts | 128° |
| 2026-05-06 10:59 | 47.17470 | 13.67862 | 34858 ft | 491 kts | 128° |
| 2026-05-06 10:59 | 47.13749 | 13.76245 | 34872 ft | 490 kts | 129° |
| 2026-05-06 11:00 | 47.10019 | 13.84611 | 34888 ft | 489 kts | 129° |
| 2026-05-06 11:00 | 47.06358 | 13.92820 | 34876 ft | 492 kts | 129° |
| 2026-05-06 11:01 | 47.02615 | 14.01191 | 34886 ft | 491 kts | 129° |
| 2026-05-06 11:01 | 46.98870 | 14.09538 | 34897 ft | 493 kts | 129° |
| 2026-05-06 11:02 | 46.95108 | 14.17906 | 34909 ft | 492 kts | 129° |
| 2026-05-06 11:02 | 46.91331 | 14.26275 | 34895 ft | 493 kts | 129° |
| 2026-05-06 11:03 | 46.87549 | 14.34634 | 34902 ft | 493 kts | 129° |
| 2026-05-06 11:03 | 46.83752 | 14.42987 | 34904 ft | 494 kts | 129° |
| 2026-05-06 11:04 | 46.79946 | 14.51345 | 34913 ft | 494 kts | 129° |
| 2026-05-06 11:04 | 46.76136 | 14.59689 | 34914 ft | 494 kts | 129° |
| 2026-05-06 11:05 | 46.72312 | 14.68032 | 34906 ft | 495 kts | 129° |
| 2026-05-06 11:05 | 46.68474 | 14.76377 | 34909 ft | 495 kts | 129° |
| 2026-05-06 11:06 | 46.64641 | 14.84703 | 34903 ft | 495 kts | 129° |
| 2026-05-06 11:06 | 46.60828 | 14.92953 | 34924 ft | 494 kts | 129° |
| 2026-05-06 11:07 | 46.56971 | 15.01277 | 34918 ft | 493 kts | 129° |
| 2026-05-06 11:07 | 46.53160 | 15.09468 | 34935 ft | 493 kts | 129° |
| 2026-05-06 11:08 | 46.49312 | 15.17707 | 34924 ft | 494 kts | 129° |
| 2026-05-06 11:08 | 46.45461 | 15.25945 | 34924 ft | 494 kts | 128° |
| 2026-05-06 11:09 | 46.41595 | 15.34179 | 34933 ft | 494 kts | 128° |
| 2026-05-06 11:09 | 46.37730 | 15.42398 | 34933 ft | 494 kts | 128° |
| 2026-05-06 11:10 | 46.33852 | 15.50612 | 34951 ft | 494 kts | 128° |
| 2026-05-06 11:10 | 46.29964 | 15.58836 | 34950 ft | 495 kts | 128° |
| 2026-05-06 11:11 | 46.26068 | 15.67039 | 34948 ft | 495 kts | 128° |
| 2026-05-06 11:11 | 46.22157 | 15.75245 | 34941 ft | 496 kts | 128° |
| 2026-05-06 11:12 | 46.18242 | 15.83443 | 34956 ft | 496 kts | 128° |
| 2026-05-06 11:12 | 46.14322 | 15.91626 | 34955 ft | 496 kts | 128° |
| 2026-05-06 11:13 | 46.10394 | 15.99808 | 34956 ft | 496 kts | 128° |
| 2026-05-06 11:13 | 46.06458 | 16.07985 | 34952 ft | 496 kts | 128° |
| 2026-05-06 11:14 | 46.02520 | 16.16134 | 34949 ft | 496 kts | 128° |
| 2026-05-06 11:14 | 45.98600 | 16.24216 | 34953 ft | 495 kts | 129° |
| 2026-05-06 11:15 | 45.94634 | 16.32384 | 34954 ft | 495 kts | 129° |
| 2026-05-06 11:15 | 45.90708 | 16.40439 | 34952 ft | 495 kts | 129° |
| 2026-05-06 11:16 | 45.86759 | 16.48525 | 34957 ft | 494 kts | 129° |
| 2026-05-06 11:16 | 45.82804 | 16.56593 | 34963 ft | 494 kts | 129° |
| 2026-05-06 11:17 | 45.78838 | 16.64658 | 34965 ft | 495 kts | 129° |
| 2026-05-06 11:17 | 45.74865 | 16.72723 | 34958 ft | 496 kts | 129° |
| 2026-05-06 11:18 | 45.70878 | 16.80785 | 34954 ft | 496 kts | 129° |
| 2026-05-06 11:18 | 45.66884 | 16.88841 | 34951 ft | 496 kts | 129° |
| 2026-05-06 11:19 | 45.62887 | 16.96885 | 34955 ft | 497 kts | 129° |
| 2026-05-06 11:19 | 45.58879 | 17.04921 | 34955 ft | 496 kts | 129° |
| 2026-05-06 11:20 | 45.54865 | 17.12947 | 34944 ft | 497 kts | 129° |
| 2026-05-06 11:20 | 45.50849 | 17.20964 | 34943 ft | 497 kts | 129° |
| 2026-05-06 11:21 | 45.46818 | 17.28972 | 34951 ft | 497 kts | 129° |
| 2026-05-06 11:21 | 45.42782 | 17.36979 | 34949 ft | 498 kts | 129° |
| 2026-05-06 11:22 | 45.38760 | 17.44932 | 34943 ft | 499 kts | 129° |
| 2026-05-06 11:22 | 45.34702 | 17.52935 | 34944 ft | 498 kts | 129° |
| 2026-05-06 11:23 | 45.30613 | 17.60977 | 34939 ft | 498 kts | 129° |
| 2026-05-06 11:23 | 45.26582 | 17.68884 | 34943 ft | 498 kts | 129° |
| 2026-05-06 11:24 | 45.22514 | 17.76839 | 34945 ft | 497 kts | 129° |
| 2026-05-06 11:24 | 45.18450 | 17.84765 | 34942 ft | 497 kts | 129° |
| 2026-05-06 11:25 | 45.14378 | 17.92687 | 34947 ft | 496 kts | 129° |
| 2026-05-06 11:25 | 45.10307 | 18.00585 | 34945 ft | 496 kts | 129° |
| 2026-05-06 11:26 | 45.06229 | 18.08465 | 34952 ft | 497 kts | 129° |
| 2026-05-06 11:26 | 45.02141 | 18.16352 | 34958 ft | 498 kts | 129° |
| 2026-05-06 11:27 | 44.98043 | 18.24233 | 34950 ft | 498 kts | 129° |
| 2026-05-06 11:27 | 44.93932 | 18.32124 | 34957 ft | 499 kts | 129° |
| 2026-05-06 11:28 | 44.89812 | 18.40002 | 34966 ft | 499 kts | 129° |
| 2026-05-06 11:28 | 44.85680 | 18.47890 | 34969 ft | 499 kts | 129° |
| 2026-05-06 11:29 | 44.81547 | 18.55755 | 34973 ft | 499 kts | 129° |
| 2026-05-06 11:29 | 44.77475 | 18.63707 | 34972 ft | 500 kts | 124° |
| 2026-05-06 11:30 | 44.74590 | 18.70771 | 34975 ft | 501 kts | 121° |
| 2026-05-06 11:30 | 44.70635 | 18.80715 | 34970 ft | 501 kts | 121° |
| 2026-05-06 11:31 | 44.67785 | 18.87810 | 34968 ft | 501 kts | 121° |
| 2026-05-06 11:31 | 44.64308 | 18.96379 | 34974 ft | 502 kts | 121° |
| 2026-05-06 11:32 | 44.60861 | 19.04826 | 34973 ft | 502 kts | 121° |
| 2026-05-06 11:32 | 44.57379 | 19.13333 | 34970 ft | 503 kts | 121° |
| 2026-05-06 11:33 | 44.53892 | 19.21838 | 34973 ft | 503 kts | 121° |
| 2026-05-06 11:33 | 44.50399 | 19.30328 | 34974 ft | 503 kts | 121° |
| 2026-05-06 11:34 | 44.46893 | 19.38826 | 34974 ft | 504 kts | 121° |
| 2026-05-06 11:34 | 44.43374 | 19.47323 | 34972 ft | 505 kts | 121° |
| 2026-05-06 11:35 | 44.39841 | 19.55827 | 34983 ft | 505 kts | 121° |
| 2026-05-06 11:35 | 44.36304 | 19.64328 | 34983 ft | 506 kts | 121° |
| 2026-05-06 11:36 | 44.32758 | 19.72832 | 34977 ft | 507 kts | 121° |
| 2026-05-06 11:36 | 44.29221 | 19.81268 | 35003 ft | 507 kts | 121° |
| 2026-05-06 11:37 | 44.25657 | 19.89753 | 34996 ft | 507 kts | 121° |
| 2026-05-06 11:37 | 44.22085 | 19.98224 | 34985 ft | 507 kts | 121° |
| 2026-05-06 11:38 | 44.18504 | 20.06697 | 34999 ft | 507 kts | 121° |
| 2026-05-06 11:38 | 44.14913 | 20.15170 | 34985 ft | 508 kts | 121° |
| 2026-05-06 11:39 | 44.11318 | 20.23627 | 34981 ft | 508 kts | 121° |
| 2026-05-06 11:39 | 44.07718 | 20.32067 | 35000 ft | 506 kts | 121° |
| 2026-05-06 11:40 | 44.04119 | 20.40491 | 35000 ft | 506 kts | 121° |
| 2026-05-06 11:40 | 44.00519 | 20.48894 | 35005 ft | 506 kts | 121° |
| 2026-05-06 11:41 | 43.96904 | 20.57295 | 34979 ft | 507 kts | 121° |
| 2026-05-06 11:41 | 43.93278 | 20.65695 | 34986 ft | 508 kts | 121° |
| 2026-05-06 11:42 | 43.89663 | 20.74051 | 34998 ft | 508 kts | 121° |
| 2026-05-06 11:42 | 43.86017 | 20.82453 | 35000 ft | 509 kts | 121° |
| 2026-05-06 11:43 | 43.82361 | 20.90854 | 35006 ft | 510 kts | 121° |
| 2026-05-06 11:43 | 43.78696 | 20.99254 | 35006 ft | 510 kts | 121° |
| 2026-05-06 11:44 | 43.73174 | 21.11871 | 35011 ft | 511 kts | 121° |
| 2026-05-06 11:44 | 43.69473 | 21.20285 | 34986 ft | 512 kts | 121° |
| 2026-05-06 11:45 | 43.65759 | 21.28703 | 35005 ft | 513 kts | 121° |
| 2026-05-06 11:45 | 43.62036 | 21.37122 | 34999 ft | 514 kts | 120° |
| 2026-05-06 11:46 | 43.58304 | 21.45535 | 34993 ft | 514 kts | 121° |
| 2026-05-06 11:46 | 43.54561 | 21.53952 | 35005 ft | 515 kts | 120° |
| 2026-05-06 11:47 | 43.50813 | 21.62369 | 35003 ft | 515 kts | 120° |
| 2026-05-06 11:47 | 43.47051 | 21.70779 | 35008 ft | 515 kts | 121° |
| 2026-05-06 11:48 | 43.43280 | 21.79173 | 35000 ft | 515 kts | 121° |
| 2026-05-06 11:48 | 43.39516 | 21.87550 | 34985 ft | 515 kts | 121° |
| 2026-05-06 11:49 | 43.35737 | 21.95927 | 34987 ft | 515 kts | 121° |
| 2026-05-06 11:49 | 43.31957 | 22.04279 | 34983 ft | 515 kts | 120° |
| 2026-05-06 11:50 | 43.28173 | 22.12618 | 35002 ft | 514 kts | 120° |
| 2026-05-06 11:50 | 43.24388 | 22.20939 | 35002 ft | 514 kts | 121° |
| 2026-05-06 11:51 | 43.20621 | 22.29185 | 35002 ft | 514 kts | 121° |
| 2026-05-06 11:51 | 43.16832 | 22.37470 | 35012 ft | 513 kts | 120° |
| 2026-05-06 11:52 | 43.13036 | 22.45747 | 35006 ft | 513 kts | 121° |
| 2026-05-06 11:52 | 43.09236 | 22.54003 | 35011 ft | 512 kts | 121° |
| 2026-05-06 11:53 | 43.05435 | 22.62240 | 35017 ft | 512 kts | 121° |
| 2026-05-06 11:53 | 43.01627 | 22.70477 | 35022 ft | 512 kts | 121° |
| 2026-05-06 11:54 | 42.97681 | 22.78582 | 35025 ft | 513 kts | 127° |
| 2026-05-06 11:54 | 42.92841 | 22.85725 | 35032 ft | 513 kts | 136° |
| 2026-05-06 11:55 | 42.87588 | 22.92308 | 35043 ft | 513 kts | 137° |
| 2026-05-06 11:55 | 42.82341 | 22.98915 | 35039 ft | 513 kts | 136° |
| 2026-05-06 11:56 | 42.77118 | 23.05548 | 35039 ft | 514 kts | 136° |
| 2026-05-06 11:56 | 42.71898 | 23.12188 | 35046 ft | 514 kts | 136° |
| 2026-05-06 11:57 | 42.66670 | 23.18816 | 35052 ft | 514 kts | 136° |
| 2026-05-06 11:57 | 42.61432 | 23.25441 | 35050 ft | 515 kts | 136° |
| 2026-05-06 11:58 | 42.56184 | 23.32060 | 35042 ft | 515 kts | 136° |
| 2026-05-06 11:58 | 42.50934 | 23.38665 | 35046 ft | 514 kts | 136° |
| 2026-05-06 11:59 | 42.45721 | 23.45204 | 35046 ft | 514 kts | 136° |
| 2026-05-06 11:59 | 42.40472 | 23.51780 | 35041 ft | 514 kts | 136° |
| 2026-05-06 12:00 | 42.35217 | 23.58343 | 35052 ft | 514 kts | 136° |
| 2026-05-06 12:00 | 42.29966 | 23.64890 | 35046 ft | 514 kts | 136° |
| 2026-05-06 12:01 | 42.24660 | 23.71386 | 35047 ft | 515 kts | 137° |
| 2026-05-06 12:01 | 42.19324 | 23.77832 | 35036 ft | 516 kts | 137° |
| 2026-05-06 12:02 | 42.13980 | 23.84296 | 35038 ft | 516 kts | 137° |
| 2026-05-06 12:02 | 42.08639 | 23.90759 | 35044 ft | 516 kts | 137° |
| 2026-05-06 12:03 | 42.03287 | 23.97220 | 35038 ft | 516 kts | 137° |
| 2026-05-06 12:03 | 41.97941 | 24.03654 | 35044 ft | 516 kts | 137° |
| 2026-05-06 12:04 | 41.92586 | 24.10087 | 35044 ft | 516 kts | 137° |
| 2026-05-06 12:04 | 41.87234 | 24.16513 | 35030 ft | 516 kts | 137° |
| 2026-05-06 12:05 | 41.81884 | 24.22922 | 35037 ft | 515 kts | 137° |
| 2026-05-06 12:05 | 41.76534 | 24.29315 | 35035 ft | 515 kts | 137° |
| 2026-05-06 12:06 | 41.71176 | 24.35700 | 35041 ft | 516 kts | 137° |
| 2026-05-06 12:06 | 41.65813 | 24.42072 | 35040 ft | 516 kts | 137° |
| 2026-05-06 12:07 | 41.60441 | 24.48445 | 35032 ft | 516 kts | 137° |
| 2026-05-06 12:07 | 41.55066 | 24.54811 | 35035 ft | 517 kts | 137° |
| 2026-05-06 12:08 | 41.49685 | 24.61163 | 35034 ft | 516 kts | 137° |
| 2026-05-06 12:08 | 41.44302 | 24.67509 | 35048 ft | 516 kts | 137° |
| 2026-05-06 12:09 | 41.39022 | 24.74009 | 35038 ft | 517 kts | 134° |
| 2026-05-06 12:09 | 41.33911 | 24.80722 | 35051 ft | 516 kts | 134° |
| 2026-05-06 12:10 | 41.28798 | 24.87449 | 35049 ft | 517 kts | 134° |
| 2026-05-06 12:10 | 41.23665 | 24.94148 | 35049 ft | 518 kts | 134° |
| 2026-05-06 12:11 | 41.18500 | 25.00836 | 35053 ft | 519 kts | 135° |
| 2026-05-06 12:11 | 41.13338 | 25.07526 | 35046 ft | 519 kts | 135° |
| 2026-05-06 12:12 | 41.08168 | 25.14204 | 35056 ft | 518 kts | 135° |
| 2026-05-06 12:12 | 41.03000 | 25.20865 | 35058 ft | 518 kts | 135° |
| 2026-05-06 12:13 | 40.97828 | 25.27512 | 35057 ft | 519 kts | 135° |
| 2026-05-06 12:13 | 40.92654 | 25.34150 | 35052 ft | 518 kts | 135° |
| 2026-05-06 12:14 | 40.87476 | 25.40779 | 35064 ft | 518 kts | 135° |
| 2026-05-06 12:14 | 40.82290 | 25.47404 | 35066 ft | 519 kts | 135° |
| 2026-05-06 12:15 | 40.77097 | 25.54015 | 35075 ft | 519 kts | 135° |
| 2026-05-06 12:15 | 40.71896 | 25.60625 | 35082 ft | 519 kts | 135° |
| 2026-05-06 12:16 | 40.67573 | 25.66111 | 35073 ft | 520 kts | 135° |
| 2026-05-06 12:16 | 40.62355 | 25.72716 | 35081 ft | 520 kts | 135° |
| 2026-05-06 12:17 | 40.56297 | 25.80368 | 35077 ft | 520 kts | 135° |
| 2026-05-06 12:17 | 40.51941 | 25.85906 | 35079 ft | 520 kts | 133° |
| 2026-05-06 12:18 | 40.47403 | 25.93257 | 35081 ft | 517 kts | 121° |
| 2026-05-06 12:18 | 40.43532 | 26.01222 | 35096 ft | 518 kts | 120° |
| 2026-05-06 12:19 | 40.39649 | 26.09178 | 35098 ft | 518 kts | 121° |
| 2026-05-06 12:19 | 40.35727 | 26.17104 | 35097 ft | 518 kts | 121° |
| 2026-05-06 12:20 | 40.31787 | 26.25006 | 35098 ft | 518 kts | 121° |
| 2026-05-06 12:20 | 40.27843 | 26.32899 | 35080 ft | 518 kts | 121° |
| 2026-05-06 12:21 | 40.23888 | 26.40790 | 35077 ft | 517 kts | 121° |
| 2026-05-06 12:21 | 40.19965 | 26.48598 | 35071 ft | 517 kts | 121° |
| 2026-05-06 12:22 | 40.15992 | 26.56501 | 35079 ft | 517 kts | 121° |
| 2026-05-06 12:22 | 40.12061 | 26.64292 | 35069 ft | 516 kts | 121° |
| 2026-05-06 12:23 | 40.08080 | 26.72158 | 35074 ft | 516 kts | 121° |
| 2026-05-06 12:23 | 40.04125 | 26.79949 | 35074 ft | 514 kts | 121° |
| 2026-05-06 12:24 | 40.00176 | 26.87719 | 35074 ft | 514 kts | 122° |
| 2026-05-06 12:24 | 39.96227 | 26.95486 | 35063 ft | 514 kts | 122° |
| 2026-05-06 12:25 | 39.92262 | 27.03242 | 35077 ft | 514 kts | 122° |
| 2026-05-06 12:25 | 39.88314 | 27.10943 | 35074 ft | 515 kts | 122° |
| 2026-05-06 12:26 | 39.84328 | 27.18707 | 35071 ft | 515 kts | 122° |
| 2026-05-06 12:26 | 39.80340 | 27.26459 | 35077 ft | 516 kts | 122° |
| 2026-05-06 12:27 | 39.76318 | 27.34256 | 35076 ft | 516 kts | 122° |
| 2026-05-06 12:27 | 39.72336 | 27.41953 | 35068 ft | 516 kts | 122° |
| 2026-05-06 12:28 | 39.68333 | 27.49672 | 35075 ft | 515 kts | 122° |
| 2026-05-06 12:28 | 39.64327 | 27.57381 | 35073 ft | 514 kts | 122° |
| 2026-05-06 12:29 | 39.60322 | 27.65069 | 35074 ft | 514 kts | 122° |
| 2026-05-06 12:29 | 39.56316 | 27.72742 | 35075 ft | 513 kts | 122° |
| 2026-05-06 12:30 | 39.52308 | 27.80391 | 35075 ft | 513 kts | 122° |
| 2026-05-06 12:30 | 39.48302 | 27.88031 | 35070 ft | 513 kts | 122° |
| 2026-05-06 12:31 | 39.44289 | 27.95663 | 35078 ft | 512 kts | 123° |
| 2026-05-06 12:31 | 39.40273 | 28.03283 | 35075 ft | 512 kts | 123° |
| 2026-05-06 12:32 | 39.36259 | 28.10875 | 35074 ft | 511 kts | 123° |
| 2026-05-06 12:32 | 39.32239 | 28.18460 | 35077 ft | 512 kts | 123° |
| 2026-05-06 12:33 | 39.28215 | 28.26038 | 35080 ft | 511 kts | 123° |
| 2026-05-06 12:33 | 39.24184 | 28.33608 | 35076 ft | 511 kts | 123° |
| 2026-05-06 12:34 | 39.20152 | 28.41163 | 35083 ft | 512 kts | 123° |
| 2026-05-06 12:34 | 39.16110 | 28.48724 | 35079 ft | 512 kts | 123° |